createdAt,value
2022-11-06T00:00:48.760Z,92.36
2022-11-06T00:03:20.595Z,92.19
2022-11-06T00:06:10.291Z,92.16
2022-11-06T00:08:43.071Z,92.33
2022-11-06T00:11:18.524Z,92.26
2022-11-06T00:13:52.463Z,92.18
2022-11-06T00:16:24.483Z,92.01
2022-11-06T00:18:57.240Z,92.10
2022-11-06T00:21:30.911Z,92.29
2022-11-06T00:24:03.954Z,92.31
2022-11-06T00:26:36.573Z,92.54
2022-11-06T00:29:09.666Z,92.66
2022-11-06T00:31:41.525Z,92.89
2022-11-06T00:34:13.439Z,92.80
2022-11-06T00:36:45.198Z,92.93
2022-11-06T00:39:17.049Z,92.82
2022-11-06T00:41:48.794Z,93.02
2022-11-06T00:44:20.698Z,92.86
2022-11-06T00:46:52.524Z,92.90
2022-11-06T00:49:24.304Z,92.99
2022-11-06T00:51:56.146Z,92.60
2022-11-06T00:54:27.934Z,92.79
2022-11-06T00:56:59.986Z,92.74
2022-11-06T00:59:31.978Z,92.80
2022-11-06T01:02:03.797Z,92.75
2022-11-06T01:04:35.685Z,92.55
2022-11-06T01:07:07.439Z,92.34
2022-11-06T01:09:39.887Z,92.12
2022-11-06T01:12:13.749Z,92.19
2022-11-06T01:14:46.550Z,92.39
2022-11-06T01:17:18.458Z,92.46
2022-11-06T01:19:50.200Z,92.39
2022-11-06T01:22:22.031Z,92.57
2022-11-06T01:24:53.988Z,92.34
2022-11-06T01:27:26.974Z,92.31
2022-11-06T01:29:59.308Z,92.03
2022-11-06T01:32:31.846Z,91.88
2022-11-06T01:35:03.566Z,92.18
2022-11-06T01:37:35.617Z,92.22
2022-11-06T01:40:08.562Z,91.81
2022-11-06T01:42:40.302Z,91.46
2022-11-06T01:45:27.364Z,91.66
2022-11-06T01:47:59.881Z,91.42
2022-11-06T01:50:32.081Z,91.47
2022-11-06T01:53:03.959Z,91.63
2022-11-06T01:55:40.401Z,91.56
2022-11-06T01:58:16.155Z,91.69
2022-11-06T02:00:49.829Z,91.98
2022-11-06T02:03:21.909Z,92.13
2022-11-06T02:05:54.279Z,92.04
2022-11-06T02:08:26.881Z,92.10
2022-11-06T02:10:58.948Z,92.02
2022-11-06T02:13:38.818Z,91.71
2022-11-06T02:16:19.067Z,91.25
2022-11-06T02:19:03.234Z,91.27
2022-11-06T02:22:08.020Z,91.45
2022-11-06T02:24:56.421Z,91.42
2022-11-06T02:27:30.850Z,91.62
2022-11-06T02:30:06.854Z,91.76
2022-11-06T02:32:43.104Z,91.71
2022-11-06T02:35:23.269Z,91.49
2022-11-06T02:38:00.203Z,91.58
2022-11-06T02:40:35.265Z,91.84
2022-11-06T02:43:09.627Z,91.86
2022-11-06T02:45:48.773Z,91.60
2022-11-06T02:48:24.940Z,91.60
2022-11-06T02:50:59.920Z,92.04
2022-11-06T02:53:34.122Z,91.78
2022-11-06T02:56:10.237Z,91.62
2022-11-06T02:58:49.049Z,91.68
2022-11-06T03:01:28.355Z,91.51
2022-11-06T03:04:05.628Z,91.56
2022-11-06T03:06:43.885Z,91.53
2022-11-06T03:09:20.409Z,91.76
2022-11-06T03:11:57.462Z,91.82
2022-11-06T03:14:35.160Z,92.08
2022-11-06T03:17:15.452Z,92.04
2022-11-06T03:19:53.358Z,92.04
2022-11-06T03:22:31.635Z,91.93
2022-11-06T03:25:14.862Z,92.15
2022-11-06T03:27:57.442Z,92.22
2022-11-06T03:30:30.143Z,92.02
2022-11-06T03:33:10.490Z,91.82
2022-11-06T03:35:45.693Z,91.71
2022-11-06T03:38:23.845Z,91.70
2022-11-06T03:40:59.545Z,91.61
2022-11-06T03:43:36.666Z,91.41
2022-11-06T03:46:13.351Z,91.47
2022-11-06T03:48:49.075Z,91.58
2022-11-06T03:51:25.027Z,91.73
2022-11-06T03:54:01.376Z,92.00
2022-11-06T03:56:38.215Z,92.09
2022-11-06T03:59:12.342Z,92.01
2022-11-06T04:01:47.952Z,92.02
2022-11-06T04:04:24.645Z,92.12
2022-11-06T04:07:01.699Z,91.90
2022-11-06T04:09:56.810Z,92.04
2022-11-06T04:13:00.183Z,92.00
2022-11-06T04:15:35.068Z,92.00
2022-11-06T04:18:15.710Z,92.12
2022-11-06T04:21:12.812Z,92.13
2022-11-06T04:24:12.988Z,92.39
2022-11-06T04:26:53.567Z,92.09
2022-11-06T04:29:42.016Z,91.97
2022-11-06T04:32:19.630Z,92.05
2022-11-06T04:35:00.704Z,91.68
2022-11-06T04:37:40.740Z,91.60
2022-11-06T04:40:18.474Z,92.04
2022-11-06T04:42:55.864Z,92.29
2022-11-06T04:45:32.611Z,91.99
2022-11-06T04:48:06.711Z,91.86
2022-11-06T04:50:44.417Z,91.91
2022-11-06T04:53:18.722Z,91.93
2022-11-06T04:55:56.199Z,92.04
2022-11-06T04:58:28.236Z,92.11
2022-11-06T05:01:00.215Z,91.95
2022-11-06T05:03:32.560Z,92.18
2022-11-06T05:06:04.566Z,91.88
2022-11-06T05:08:36.314Z,91.53
2022-11-06T05:11:08.288Z,91.37
2022-11-06T05:13:40.215Z,91.52
2022-11-06T05:16:11.976Z,91.64
2022-11-06T05:18:43.961Z,91.82
2022-11-06T05:21:33.707Z,92.07
2022-11-06T05:24:06.464Z,92.01
2022-11-06T05:26:38.463Z,91.98
2022-11-06T05:29:11.795Z,92.13
2022-11-06T05:31:43.872Z,91.76
2022-11-06T05:34:15.851Z,91.84
2022-11-06T05:36:47.593Z,91.52
2022-11-06T05:39:19.349Z,91.58
2022-11-06T05:41:51.080Z,91.89
2022-11-06T05:44:23.116Z,91.62
2022-11-06T05:46:55.010Z,91.10
2022-11-06T05:49:27.407Z,91.24
2022-11-06T05:51:59.357Z,91.67
2022-11-06T05:54:31.351Z,91.59
2022-11-06T05:57:03.236Z,91.60
2022-11-06T05:59:35.141Z,91.49
2022-11-06T06:02:07.217Z,91.05
2022-11-06T06:04:39.372Z,91.06
2022-11-06T06:07:11.386Z,91.10
2022-11-06T06:09:43.590Z,91.11
2022-11-06T06:12:16.033Z,91.31
2022-11-06T06:14:50.497Z,91.21
2022-11-06T06:17:22.538Z,91.08
2022-11-06T06:19:54.584Z,90.71
2022-11-06T06:22:26.472Z,90.84
2022-11-06T06:24:58.722Z,91.07
2022-11-06T06:27:31.255Z,90.75
2022-11-06T06:30:03.418Z,90.61
2022-11-06T06:32:35.695Z,90.79
2022-11-06T06:35:08.817Z,90.79
2022-11-06T06:37:40.648Z,90.83
2022-11-06T06:40:14.107Z,90.65
2022-11-06T06:42:46.711Z,90.58
2022-11-06T06:45:18.901Z,90.85
2022-11-06T06:47:50.694Z,90.49
2022-11-06T06:50:22.682Z,90.40
2022-11-06T06:52:58.056Z,90.39
2022-11-06T06:55:30.513Z,90.68
2022-11-06T06:58:03.198Z,90.65
2022-11-06T07:00:35.337Z,90.70
2022-11-06T07:03:07.197Z,90.44
2022-11-06T07:05:39.808Z,90.04
2022-11-06T07:08:12.418Z,89.96
2022-11-06T07:10:44.830Z,89.92
2022-11-06T07:13:16.746Z,90.04
2022-11-06T07:15:48.588Z,89.85
2022-11-06T07:18:20.518Z,89.79
2022-11-06T07:20:52.726Z,89.49
2022-11-06T07:23:24.611Z,89.26
2022-11-06T07:25:56.704Z,89.23
2022-11-06T07:28:28.468Z,89.13
2022-11-06T07:31:02.659Z,89.37
2022-11-06T07:33:34.981Z,89.32
2022-11-06T07:36:09.632Z,89.13
2022-11-06T07:38:43.874Z,88.86
2022-11-06T07:41:17.009Z,88.72
2022-11-06T07:43:51.926Z,88.67
2022-11-06T07:46:23.730Z,87.94
2022-11-06T07:48:55.847Z,87.52
2022-11-06T07:51:27.816Z,87.69
2022-11-06T07:53:59.581Z,88.20
2022-11-06T07:56:31.665Z,88.22
2022-11-06T07:59:03.522Z,87.97
2022-11-06T08:01:35.501Z,88.48
2022-11-06T08:04:07.548Z,87.37
2022-11-06T08:06:39.692Z,86.49
2022-11-06T08:09:12.209Z,86.73
2022-11-06T08:11:44.308Z,86.53
2022-11-06T08:14:16.179Z,86.69
2022-11-06T08:16:48.091Z,86.71
2022-11-06T08:19:19.819Z,86.98
2022-11-06T08:21:52.131Z,87.17
2022-11-06T08:24:24.023Z,87.30
2022-11-06T08:26:55.929Z,87.30
2022-11-06T08:29:27.881Z,87.30
2022-11-06T08:31:59.742Z,86.94
2022-11-06T08:34:35.113Z,86.78
2022-11-06T08:37:06.936Z,87.01
2022-11-06T08:39:38.693Z,87.14
2022-11-06T08:42:10.615Z,87.19
2022-11-06T08:44:43.406Z,87.25
2022-11-06T08:47:15.300Z,87.27
2022-11-06T08:49:47.034Z,87.63
2022-11-06T08:52:19.068Z,87.63
2022-11-06T08:54:50.906Z,87.63
2022-11-06T08:57:22.825Z,86.92
2022-11-06T08:59:55.219Z,86.78
2022-11-06T09:02:27.255Z,87.18
2022-11-06T09:04:59.318Z,86.90
2022-11-06T09:07:31.040Z,86.62
2022-11-06T09:10:02.996Z,86.64
2022-11-06T09:12:34.807Z,87.17
2022-11-06T09:15:07.715Z,87.00
2022-11-06T09:17:45.165Z,86.62
2022-11-06T09:20:18.962Z,86.40
2022-11-06T09:22:51.865Z,86.22
2022-11-06T09:25:23.929Z,86.14
2022-11-06T09:27:59.401Z,86.21
2022-11-06T09:30:33.306Z,85.98
2022-11-06T09:33:12.262Z,85.48
2022-11-06T09:35:45.286Z,85.57
2022-11-06T09:38:17.357Z,85.19
2022-11-06T09:40:53.623Z,84.99
2022-11-06T09:46:43.657Z,84.84
2022-11-06T09:49:24.154Z,84.72
2022-11-06T09:52:03.501Z,84.91
2022-11-06T09:54:39.077Z,83.83
2022-11-06T09:57:17.118Z,84.16
2022-11-06T09:59:50.158Z,83.92
2022-11-06T10:02:32.043Z,84.39
2022-11-06T10:05:14.314Z,84.61
2022-11-06T10:07:47.410Z,84.28
2022-11-06T10:10:24.703Z,84.21
2022-11-06T10:13:13.657Z,84.66
2022-11-06T10:15:54.536Z,84.39
2022-11-06T10:18:41.661Z,83.63
2022-11-06T10:21:22.077Z,83.81
2022-11-06T10:23:59.585Z,84.29
2022-11-06T10:26:39.580Z,84.61
2022-11-06T10:29:27.834Z,84.43
2022-11-06T10:32:15.272Z,84.60
2022-11-06T10:34:50.796Z,85.15
2022-11-06T10:37:27.840Z,85.31
2022-11-06T10:40:00.938Z,85.04
2022-11-06T10:42:38.499Z,84.85
2022-11-06T10:45:16.107Z,84.03
2022-11-06T10:47:53.157Z,84.51
2022-11-06T10:50:33.147Z,84.55
2022-11-06T10:53:10.128Z,83.80
2022-11-06T10:56:10.880Z,83.29
2022-11-06T10:58:43.475Z,83.29
2022-11-06T11:01:17.282Z,82.97
2022-11-06T11:03:50.922Z,82.74
2022-11-06T11:06:22.738Z,83.15
2022-11-06T11:08:55.163Z,83.89
2022-11-06T11:11:29.280Z,83.02
2022-11-06T11:14:15.993Z,82.95
2022-11-06T11:16:48.915Z,83.86
2022-11-06T11:19:34.470Z,83.73
2022-11-06T11:22:18.571Z,83.47
2022-11-06T11:25:03.672Z,83.96
2022-11-06T11:27:45.089Z,84.23
2022-11-06T11:30:26.434Z,84.74
2022-11-06T11:32:59.754Z,83.96
2022-11-06T11:35:34.761Z,83.83
2022-11-06T11:38:15.607Z,84.47
2022-11-06T11:40:47.944Z,84.82
2022-11-06T11:43:25.444Z,84.87
2022-11-06T11:46:15.717Z,84.42
2022-11-06T11:48:49.548Z,84.27
2022-11-06T11:51:35.062Z,83.81
2022-11-06T11:54:23.597Z,83.96
2022-11-06T11:57:06.881Z,83.98
2022-11-06T11:59:45.567Z,83.82
2022-11-06T12:02:26.883Z,83.86
2022-11-06T12:05:01.892Z,83.21
2022-11-06T12:07:37.482Z,83.07
2022-11-06T12:10:28.015Z,82.99
2022-11-06T12:13:02.498Z,83.33
2022-11-06T12:15:42.513Z,83.16
2022-11-06T12:18:17.974Z,82.80
2022-11-06T12:20:58.716Z,82.57
2022-11-06T12:23:34.363Z,83.02
2022-11-06T12:26:10.550Z,83.10
2022-11-06T12:28:46.675Z,83.34
2022-11-06T12:31:21.909Z,83.14
2022-11-06T12:34:06.069Z,83.24
2022-11-06T12:36:45.267Z,83.12
2022-11-06T12:39:23.881Z,83.04
2022-11-06T12:41:58.223Z,83.43
2022-11-06T12:44:30.138Z,83.42
2022-11-06T12:47:07.275Z,83.32
2022-11-06T12:50:04.607Z,83.07
2022-11-06T12:52:52.758Z,82.72
2022-11-06T12:55:30.688Z,82.59
2022-11-06T12:58:19.128Z,82.89
2022-11-06T13:01:02.001Z,82.41
2022-11-06T13:03:50.240Z,82.58
2022-11-06T13:06:31.848Z,82.68
2022-11-06T13:09:10.755Z,82.99
2022-11-06T13:11:49.675Z,82.98
2022-11-06T13:14:29.790Z,83.05
2022-11-06T13:17:07.191Z,83.15
2022-11-06T13:19:48.642Z,83.46
2022-11-06T13:22:30.156Z,83.26
2022-11-06T13:25:12.242Z,83.10
2022-11-06T13:27:49.663Z,83.24
2022-11-06T13:30:24.437Z,83.59
2022-11-06T13:33:06.354Z,83.83
2022-11-06T13:35:41.028Z,84.40
2022-11-06T13:38:18.335Z,84.61
2022-11-06T13:40:54.789Z,84.74
2022-11-06T13:43:34.728Z,84.69
2022-11-06T13:46:16.167Z,85.02
2022-11-06T13:49:00.970Z,85.01
2022-11-06T13:51:43.813Z,85.20
2022-11-06T13:54:25.871Z,85.07
2022-11-06T13:57:23.579Z,85.08
2022-11-06T14:00:20.601Z,85.35
2022-11-06T14:03:37.164Z,85.45
2022-11-06T14:06:12.026Z,85.49
2022-11-06T14:08:47.351Z,85.22
2022-11-06T14:11:21.745Z,85.22
2022-11-06T14:14:04.675Z,85.30
2022-11-06T14:16:39.572Z,85.32
2022-11-06T14:19:15.757Z,85.53
2022-11-06T14:21:53.645Z,85.78
2022-11-06T14:24:42.698Z,86.03
2022-11-06T14:27:35.542Z,86.23
2022-11-06T14:30:19.066Z,86.37
2022-11-06T14:32:52.756Z,86.51
2022-11-06T14:35:53.719Z,86.21
2022-11-06T14:38:45.360Z,86.35
2022-11-06T14:41:58.617Z,86.64
2022-11-06T14:44:47.435Z,87.09
2022-11-06T14:47:37.585Z,87.24
2022-11-06T14:50:26.061Z,87.46
2022-11-06T14:53:00.545Z,87.64
2022-11-06T14:55:36.120Z,87.67
2022-11-06T14:58:22.492Z,87.75
2022-11-06T15:00:57.780Z,87.78
2022-11-06T15:03:36.001Z,87.85
2022-11-06T15:06:22.443Z,88.15
2022-11-06T15:09:07.235Z,88.41
2022-11-06T15:11:57.625Z,88.45
2022-11-06T15:14:57.353Z,88.45
2022-11-06T15:17:36.448Z,88.63
2022-11-06T15:20:29.185Z,88.70
2022-11-06T15:23:14.636Z,88.58
2022-11-06T15:25:57.933Z,88.62
2022-11-06T15:28:35.108Z,88.64
2022-11-06T15:31:09.557Z,88.69
2022-11-06T15:33:52.943Z,88.80
2022-11-06T15:36:29.620Z,88.91
2022-11-06T15:39:02.229Z,89.08
2022-11-06T15:41:34.117Z,89.02
2022-11-06T15:44:06.452Z,89.12
2022-11-06T15:46:38.388Z,89.12
2022-11-06T15:49:17.342Z,88.82
2022-11-06T15:51:55.603Z,88.73
2022-11-06T15:54:44.009Z,88.74
2022-11-06T15:57:21.435Z,88.88
2022-11-06T16:00:07.579Z,88.67
2022-11-06T16:02:50.859Z,88.69
2022-11-06T16:05:23.193Z,88.82
2022-11-06T16:07:55.415Z,88.96
2022-11-06T16:10:28.442Z,89.01
2022-11-06T16:13:01.016Z,89.00
2022-11-06T16:15:55.053Z,88.91
2022-11-06T16:18:30.827Z,88.72
2022-11-06T16:21:10.272Z,88.59
2022-11-06T16:23:45.638Z,88.74
2022-11-06T16:26:22.710Z,88.60
2022-11-06T16:28:57.249Z,88.53
2022-11-06T16:31:30.831Z,88.36
2022-11-06T16:34:04.940Z,88.70
2022-11-06T16:39:49.717Z,88.78
2022-11-06T16:42:28.447Z,89.12
2022-11-06T16:45:20.194Z,89.20
2022-11-06T16:48:34.666Z,89.11
2022-11-06T16:51:12.079Z,89.21
2022-11-06T16:53:56.146Z,89.44
2022-11-06T16:56:32.044Z,89.57
2022-11-06T16:59:08.831Z,89.40
2022-11-06T17:01:42.397Z,89.39
2022-11-06T17:04:23.895Z,89.27
2022-11-06T17:06:57.305Z,89.40
2022-11-06T17:09:34.051Z,89.44
2022-11-06T17:12:10.985Z,89.64
2022-11-06T17:14:47.493Z,89.82
2022-11-06T17:17:28.438Z,89.92
2022-11-06T17:20:01.182Z,90.15
2022-11-06T17:22:33.294Z,89.92
2022-11-06T17:25:06.108Z,90.17
2022-11-06T17:27:38.022Z,90.31
2022-11-06T17:30:16.030Z,90.39
2022-11-06T17:32:48.652Z,90.75
2022-11-06T17:35:20.876Z,90.87
2022-11-06T17:37:52.732Z,90.95
2022-11-06T17:40:24.898Z,91.04
2022-11-06T17:42:56.814Z,90.86
2022-11-06T17:45:29.228Z,90.71
2022-11-06T17:48:01.341Z,90.37
2022-11-06T17:50:55.131Z,90.37
2022-11-06T17:53:27.892Z,90.39
2022-11-06T17:56:03.190Z,90.60
2022-11-06T17:58:35.772Z,90.37
2022-11-06T18:01:10.379Z,90.70
2022-11-06T18:03:45.616Z,90.91
2022-11-06T18:06:18.810Z,90.85
2022-11-06T18:08:50.845Z,90.58
2022-11-06T18:11:22.729Z,90.71
2022-11-06T18:13:56.483Z,90.82
2022-11-06T18:16:32.408Z,90.80
2022-11-06T18:19:06.770Z,90.60
2022-11-06T18:21:39.442Z,90.60
2022-11-06T18:24:13.722Z,90.76
2022-11-06T18:26:46.097Z,90.68
2022-11-06T18:29:18.569Z,90.67
2022-11-06T18:31:50.466Z,90.59
2022-11-06T18:34:22.700Z,90.85
2022-11-06T18:36:54.685Z,91.14
2022-11-06T18:39:26.535Z,91.26
2022-11-06T18:42:00.328Z,90.99
2022-11-06T18:44:35.138Z,91.24
2022-11-06T18:47:07.159Z,90.98
2022-11-06T18:49:39.114Z,91.19
2022-11-06T18:52:11.305Z,91.03
2022-11-06T18:54:43.467Z,91.18
2022-11-06T18:57:16.060Z,91.45
2022-11-06T18:59:48.285Z,91.82
2022-11-06T19:02:20.338Z,92.55
2022-11-06T19:04:52.832Z,92.14
2022-11-06T19:07:24.974Z,91.87
2022-11-06T19:09:56.835Z,91.85
2022-11-06T19:12:29.047Z,91.54
2022-11-06T19:15:01.571Z,91.21
2022-11-06T19:17:33.818Z,91.45
2022-11-06T19:20:10.826Z,91.79
2022-11-06T19:22:49.632Z,91.82
2022-11-06T19:25:22.321Z,91.38
2022-11-06T19:27:57.865Z,91.40
2022-11-06T19:30:30.339Z,91.38
2022-11-06T19:33:03.949Z,91.33
2022-11-06T19:35:36.840Z,91.46
2022-11-06T19:38:09.036Z,91.63
2022-11-06T19:40:41.215Z,91.46
2022-11-06T19:43:13.516Z,91.43
2022-11-06T19:45:47.544Z,91.54
2022-11-06T19:48:19.753Z,91.56
2022-11-06T19:51:00.485Z,91.77
2022-11-06T19:53:33.033Z,91.72
2022-11-06T19:56:09.518Z,92.00
2022-11-06T19:58:41.588Z,91.80
2022-11-06T20:01:15.015Z,91.68
2022-11-06T20:03:47.799Z,91.43
2022-11-06T20:06:19.850Z,91.32
2022-11-06T20:08:52.514Z,91.38
2022-11-06T20:11:26.325Z,91.20
2022-11-06T20:13:58.321Z,91.29
2022-11-06T20:16:30.551Z,91.37
2022-11-06T20:19:02.469Z,91.33
2022-11-06T20:21:34.705Z,91.29
2022-11-06T20:24:09.154Z,91.19
2022-11-06T20:26:41.565Z,91.18
2022-11-06T20:29:13.561Z,90.90
2022-11-06T20:31:45.780Z,91.06
2022-11-06T20:34:19.570Z,91.08
2022-11-06T20:36:51.898Z,91.31
2022-11-06T20:39:24.251Z,91.05
2022-11-06T20:41:56.484Z,90.74
2022-11-06T20:44:28.539Z,90.82
2022-11-06T20:47:00.654Z,91.15
2022-11-06T20:49:33.246Z,90.96
2022-11-06T20:52:14.422Z,91.49
2022-11-06T20:54:49.490Z,91.47
2022-11-06T20:57:22.063Z,91.12
2022-11-06T20:59:54.462Z,91.26
2022-11-06T21:02:26.613Z,91.27
2022-11-06T21:04:58.956Z,91.31
2022-11-06T21:07:33.351Z,90.94
2022-11-06T21:10:06.445Z,90.30
2022-11-06T21:12:39.780Z,90.48
2022-11-06T21:15:13.113Z,90.72
2022-11-06T21:17:45.666Z,90.97
2022-11-06T21:20:22.735Z,91.14
2022-11-06T21:22:55.272Z,91.28
2022-11-06T21:25:27.439Z,91.22
2022-11-06T21:27:59.550Z,91.37
2022-11-06T21:30:33.026Z,91.72
2022-11-06T21:33:05.470Z,91.88
2022-11-06T21:35:37.531Z,91.83
2022-11-06T21:38:09.908Z,92.02
2022-11-06T21:40:42.315Z,92.29
2022-11-06T21:43:14.901Z,92.73
2022-11-06T21:45:47.405Z,92.78
2022-11-06T21:48:32.776Z,92.68
2022-11-06T21:51:13.604Z,92.47
2022-11-06T21:54:03.811Z,92.41
2022-11-06T21:56:36.800Z,91.81
2022-11-06T21:59:11.618Z,91.60
2022-11-06T22:01:44.192Z,91.73
2022-11-06T22:04:16.210Z,91.71
2022-11-06T22:06:48.082Z,91.64
2022-11-06T22:09:25.226Z,91.28
2022-11-06T22:11:57.940Z,91.39
2022-11-06T22:14:29.955Z,91.65
2022-11-06T22:17:01.789Z,91.24
2022-11-06T22:19:33.631Z,91.44
2022-11-06T22:22:05.793Z,91.52
2022-11-06T22:25:19.607Z,91.65
2022-11-06T22:28:47.158Z,92.00
2022-11-06T22:31:19.228Z,91.97
2022-11-06T22:33:53.877Z,92.00
2022-11-06T22:36:26.584Z,92.04
2022-11-06T22:39:00.363Z,92.13
2022-11-06T22:41:32.290Z,92.10
2022-11-06T22:44:05.461Z,92.07
2022-11-06T22:46:38.007Z,91.71
2022-11-06T22:49:11.236Z,91.78
2022-11-06T22:51:43.364Z,91.69
2022-11-06T22:54:15.270Z,91.51
2022-11-06T22:56:47.545Z,91.23
2022-11-06T22:59:20.896Z,91.10
2022-11-06T23:01:53.470Z,91.08
2022-11-06T23:04:25.440Z,91.22
2022-11-06T23:06:57.222Z,91.32
2022-11-06T23:09:29.081Z,91.43
2022-11-06T23:12:01.458Z,91.44
2022-11-06T23:14:33.261Z,91.54
2022-11-06T23:17:05.060Z,91.65
2022-11-06T23:19:37.017Z,91.71
2022-11-06T23:22:26.576Z,92.02
2022-11-06T23:24:58.711Z,91.87
2022-11-06T23:27:30.720Z,91.95
2022-11-06T23:30:03.388Z,92.19
2022-11-06T23:32:37.466Z,92.32
2022-11-06T23:35:13.806Z,92.21
2022-11-06T23:37:47.257Z,92.53
2022-11-06T23:40:19.128Z,92.52
2022-11-06T23:42:54.828Z,92.44
2022-11-06T23:45:44.544Z,92.26
2022-11-06T23:48:18.166Z,92.42
2022-11-06T23:50:50.033Z,92.45
2022-11-06T23:53:22.151Z,92.60
2022-11-06T23:55:54.035Z,92.50
2022-11-06T23:58:26.120Z,92.47
